createdAt,value
2023-03-27T00:01:32.474Z,98919.06
2023-03-27T00:06:37.193Z,98919.44
2023-03-27T00:11:39.944Z,98923.94
2023-03-27T00:16:42.753Z,98944.53
2023-03-27T00:21:47.746Z,98954.38
2023-03-27T00:26:50.500Z,98960.97
2023-03-27T00:31:53.255Z,98966.91
2023-03-27T00:36:57.346Z,98978.38
2023-03-27T00:42:00.052Z,98985.53
2023-03-27T00:47:03.853Z,98989.81
2023-03-27T00:52:08.581Z,99001.72
2023-03-27T00:57:16.252Z,99001.66
2023-03-27T01:02:19.546Z,99003.28
2023-03-27T01:07:25.094Z,99014.78
2023-03-27T01:12:36.651Z,99023.56
2023-03-27T01:17:48.640Z,99020.84
2023-03-27T01:23:17.361Z,99023.47
2023-03-27T01:28:44.689Z,99042.78
2023-03-27T01:34:10.246Z,99064.50
2023-03-27T01:39:29.956Z,99059.47
2023-03-27T01:44:45.032Z,99064.38
2023-03-27T01:49:55.914Z,99082.63
2023-03-27T01:55:03.538Z,99090.19
2023-03-27T02:00:19.409Z,99090.13
2023-03-27T02:05:25.699Z,99107.75
2023-03-27T02:10:32.335Z,99110.97
2023-03-27T02:15:42.237Z,99125.72
2023-03-27T02:20:45.040Z,99128.31
2023-03-27T02:25:49.221Z,99130.53
2023-03-27T02:31:06.268Z,99139.94
2023-03-27T02:36:29.553Z,99150.34
2023-03-27T02:41:37.805Z,99153.78
2023-03-27T02:47:10.960Z,99163.97
2023-03-27T02:52:20.057Z,99179.53
2023-03-27T02:57:27.815Z,99183.41
2023-03-27T03:02:50.131Z,99182.94
2023-03-27T03:07:54.225Z,99192.50
2023-03-27T03:13:01.730Z,99191.03
2023-03-27T03:18:04.614Z,99208.44
2023-03-27T03:23:07.658Z,99205.28
2023-03-27T03:28:12.980Z,99227.66
2023-03-27T03:33:15.992Z,99230.84
2023-03-27T03:38:25.025Z,99233.22
2023-03-27T03:43:31.061Z,99242.63
2023-03-27T03:48:35.155Z,99242.13
2023-03-27T03:53:37.924Z,99245.19
2023-03-27T03:58:42.682Z,99249.41
2023-03-27T04:03:45.613Z,99260.06
2023-03-27T04:08:48.833Z,99273.09
2023-03-27T04:14:15.649Z,99274.25
2023-03-27T04:19:20.526Z,99285.44
2023-03-27T04:24:33.144Z,99298.31
2023-03-27T04:29:37.535Z,99304.69
2023-03-27T04:34:40.769Z,99322.19
2023-03-27T04:40:18.050Z,99333.03
2023-03-27T04:45:23.317Z,99324.75
2023-03-27T04:50:27.114Z,99337.41
2023-03-27T04:55:30.400Z,99344.94
2023-03-27T05:00:35.061Z,99347.75
2023-03-27T05:06:15.990Z,99346.63
2023-03-27T05:11:19.114Z,99366.13
2023-03-27T05:16:24.310Z,99374.94
2023-03-27T05:21:30.814Z,99375.28
2023-03-27T05:26:33.884Z,99382.00
2023-03-27T05:31:38.302Z,99397.13
2023-03-27T05:37:06.209Z,99398.13
2023-03-27T05:42:18.398Z,99405.47
2023-03-27T05:47:22.810Z,99412.63
2023-03-27T05:52:29.224Z,99412.63
2023-03-27T05:57:32.946Z,99422.28
2023-03-27T06:02:38.860Z,99432.28
2023-03-27T06:07:43.256Z,99436.22
2023-03-27T06:12:48.933Z,99448.38
2023-03-27T06:18:03.495Z,99450.06
2023-03-27T06:23:11.882Z,99466.88
2023-03-27T06:28:15.224Z,99463.19
2023-03-27T06:33:22.380Z,99484.16
2023-03-27T06:38:26.157Z,99492.16
2023-03-27T06:43:29.053Z,99485.44
2023-03-27T06:48:44.155Z,99493.00
2023-03-27T06:53:49.338Z,99493.41
2023-03-27T06:58:53.889Z,99504.53
2023-03-27T07:04:03.507Z,99509.28
2023-03-27T07:09:23.220Z,99512.28
2023-03-27T07:14:35.924Z,99519.13
2023-03-27T07:19:40.205Z,99533.31
2023-03-27T07:24:57.211Z,99539.34
2023-03-27T07:30:03.590Z,99545.72
2023-03-27T07:35:10.315Z,99544.69
2023-03-27T07:40:14.306Z,99538.16
2023-03-27T07:45:23.874Z,99556.44
2023-03-27T07:50:33.369Z,99557.88
2023-03-27T07:55:37.850Z,99559.56
2023-03-27T08:00:43.315Z,99570.53
2023-03-27T08:05:58.764Z,99564.88
2023-03-27T08:11:04.962Z,99568.47
2023-03-27T08:16:14.369Z,99579.44
2023-03-27T08:21:20.134Z,99575.59
2023-03-27T08:26:26.472Z,99578.75
2023-03-27T08:31:37.468Z,99583.75
2023-03-27T08:36:42.843Z,99601.94
2023-03-27T08:41:50.606Z,99598.16
2023-03-27T08:47:04.767Z,99605.09
2023-03-27T08:52:15.756Z,99603.78
2023-03-27T08:57:22.497Z,99603.47
2023-03-27T09:02:34.957Z,99616.69
2023-03-27T09:07:45.956Z,99622.59
2023-03-27T09:13:05.200Z,99632.22
2023-03-27T09:18:15.740Z,99644.63
2023-03-27T09:23:22.725Z,99637.34
2023-03-27T09:28:50.768Z,99632.94
2023-03-27T09:33:59.865Z,99643.47
2023-03-27T09:39:07.957Z,99648.09
2023-03-27T09:44:31.201Z,99644.91
2023-03-27T09:49:44.625Z,99646.03
2023-03-27T09:54:56.216Z,99650.00
2023-03-27T10:00:15.556Z,99666.03
2023-03-27T10:05:22.122Z,99670.25
2023-03-27T10:10:33.034Z,99686.84
2023-03-27T10:15:41.125Z,99715.66
2023-03-27T10:20:51.399Z,99694.53
2023-03-27T10:26:00.646Z,99680.81
2023-03-27T10:31:28.138Z,99688.31
2023-03-27T10:36:37.833Z,99677.13
2023-03-27T10:41:48.801Z,99686.25
2023-03-27T10:46:53.550Z,99689.97
2023-03-27T10:52:06.745Z,99682.91
2023-03-27T10:57:30.494Z,99694.94
2023-03-27T11:02:37.430Z,99732.84
2023-03-27T11:07:43.776Z,99772.38
2023-03-27T11:12:54.443Z,99773.19
2023-03-27T11:18:01.937Z,99769.03
2023-03-27T11:23:30.069Z,99751.22
2023-03-27T11:29:03.014Z,99758.47
2023-03-27T11:34:29.093Z,99752.22
2023-03-27T11:39:43.537Z,99750.75
2023-03-27T11:44:48.770Z,99748.53
2023-03-27T11:50:22.184Z,99747.63
2023-03-27T11:55:32.052Z,99765.16
2023-03-27T12:00:39.437Z,99779.34
2023-03-27T12:05:57.288Z,99774.41
2023-03-27T12:11:07.127Z,99777.81
2023-03-27T12:16:36.580Z,99771.25
2023-03-27T12:21:51.602Z,99775.03
2023-03-27T12:27:15.810Z,99776.56
2023-03-27T12:32:49.933Z,99766.22
2023-03-27T12:37:58.692Z,99774.41
2023-03-27T12:43:27.325Z,99762.47
2023-03-27T12:48:57.710Z,99780.22
2023-03-27T12:54:13.879Z,99811.31
2023-03-27T12:59:23.535Z,99803.50
2023-03-27T13:04:47.710Z,99807.81
2023-03-27T13:09:59.586Z,99791.31
2023-03-27T13:15:32.989Z,99783.06
2023-03-27T13:20:46.988Z,99791.22
2023-03-27T13:26:14.306Z,99789.09
2023-03-27T13:32:00.129Z,99780.84
2023-03-27T13:37:42.888Z,99788.09
2023-03-27T13:42:47.522Z,99778.97
2023-03-27T13:48:16.145Z,99777.28
2023-03-27T13:54:00.258Z,99774.34
2023-03-27T13:59:28.183Z,99827.25
2023-03-27T14:04:43.642Z,99829.88
2023-03-27T14:09:55.828Z,99844.41
2023-03-27T14:15:32.233Z,99843.09
2023-03-27T14:21:09.110Z,99847.31
2023-03-27T14:26:24.511Z,99835.00
2023-03-27T14:31:35.383Z,99840.47
2023-03-27T14:36:56.063Z,99844.28
2023-03-27T14:42:17.683Z,99839.13
2023-03-27T14:47:24.198Z,99842.16
2023-03-27T14:52:32.179Z,99846.22
2023-03-27T14:57:57.469Z,99853.84
2023-03-27T15:03:08.500Z,99865.72
2023-03-27T15:08:12.783Z,99844.38
2023-03-27T15:13:49.710Z,99839.34
2023-03-27T15:19:09.739Z,99845.59
2023-03-27T15:24:16.676Z,99845.63
2023-03-27T15:29:32.219Z,99846.03
2023-03-27T15:34:37.433Z,99854.28
2023-03-27T15:40:32.933Z,99857.59
2023-03-27T15:45:39.844Z,99854.66
2023-03-27T15:50:54.911Z,99858.25
2023-03-27T15:55:58.600Z,99861.31
2023-03-27T16:01:18.321Z,99871.72
2023-03-27T16:06:33.559Z,99877.94
2023-03-27T16:11:43.626Z,99881.09
2023-03-27T16:17:11.207Z,99886.53
2023-03-27T16:22:14.128Z,99888.59
2023-03-27T16:27:17.451Z,99892.28
2023-03-27T16:32:23.253Z,99900.06
2023-03-27T16:37:27.184Z,99893.50
2023-03-27T16:42:30.131Z,99889.13
2023-03-27T16:47:34.254Z,99892.94
2023-03-27T16:52:37.065Z,99921.09
2023-03-27T16:57:39.928Z,99909.66
2023-03-27T17:02:46.464Z,99906.38
2023-03-27T17:07:49.359Z,99922.47
2023-03-27T17:12:52.052Z,99941.22
2023-03-27T17:17:56.256Z,99950.75
2023-03-27T17:22:59.004Z,99944.75
2023-03-27T17:28:01.776Z,99960.50
2023-03-27T18:18:00.950Z,100033.63
2023-03-27T18:23:03.777Z,100021.22
2023-03-27T18:28:06.742Z,100026.78
2023-03-27T18:33:11.498Z,100038.81
2023-03-27T18:38:15.136Z,100043.56
2023-03-27T18:43:18.030Z,100038.16
2023-03-27T18:48:22.142Z,100044.75
2023-03-27T18:53:25.263Z,100048.81
2023-03-27T18:58:29.137Z,100051.88
2023-03-27T19:03:34.912Z,100057.44
2023-03-27T19:08:38.502Z,100065.22
2023-03-27T19:13:41.171Z,100064.00
2023-03-27T19:19:01.843Z,100072.38
2023-03-27T19:24:33.849Z,100072.97
2023-03-27T19:29:37.103Z,100073.88
2023-03-27T19:34:43.153Z,100080.72
2023-03-27T19:39:45.943Z,100087.16
2023-03-27T19:44:48.556Z,100085.28
2023-03-27T19:49:53.577Z,100093.78
2023-03-27T19:55:23.925Z,100091.66
2023-03-27T20:00:26.535Z,100091.44
2023-03-27T20:05:30.807Z,100101.34
2023-03-27T20:10:35.930Z,100101.91
2023-03-27T20:15:40.618Z,100104.94
2023-03-27T20:20:46.134Z,100101.56
2023-03-27T20:25:51.565Z,100113.66
2023-03-27T20:30:54.426Z,100114.03
2023-03-27T20:35:58.656Z,100118.66
2023-03-27T20:41:03.941Z,100111.66
2023-03-27T20:46:10.630Z,100108.31
2023-03-27T20:51:17.613Z,100107.50
2023-03-27T20:56:20.644Z,100102.91
2023-03-27T21:01:27.584Z,100115.34
2023-03-27T21:06:31.872Z,100124.00
2023-03-27T21:11:34.631Z,100126.06
2023-03-27T21:16:38.357Z,100120.00
2023-03-27T21:21:42.524Z,100123.41
2023-03-27T21:26:45.123Z,100128.78
2023-03-27T21:31:47.836Z,100134.69
2023-03-27T21:36:51.934Z,100132.53
2023-03-27T21:41:54.619Z,100147.38
2023-03-27T21:46:57.243Z,100145.41
2023-03-27T21:52:02.318Z,100144.81
2023-03-27T21:57:05.592Z,100140.66
2023-03-27T22:02:08.576Z,100145.63
2023-03-27T22:07:12.520Z,100147.28
2023-03-27T22:12:16.492Z,100142.50
2023-03-27T22:17:19.122Z,100155.13
2023-03-27T22:22:23.093Z,100153.63
2023-03-27T22:27:25.879Z,100168.91
2023-03-27T22:32:28.523Z,100172.13
2023-03-27T22:37:32.559Z,100177.19
2023-03-27T22:42:36.710Z,100179.41
2023-03-27T22:47:39.460Z,100182.22
2023-03-27T22:52:43.550Z,100195.13
2023-03-27T22:57:46.146Z,100190.91
2023-03-27T23:02:48.867Z,100199.19
2023-03-27T23:07:52.958Z,100204.44
2023-03-27T23:12:55.713Z,100212.75
2023-03-27T23:17:58.373Z,100216.31
2023-03-27T23:23:02.488Z,100227.13
2023-03-27T23:28:05.469Z,100220.09
2023-03-27T23:33:08.143Z,100223.22
2023-03-27T23:38:12.260Z,100225.72
2023-03-27T23:43:14.858Z,100227.38
2023-03-27T23:48:17.771Z,100231.34
2023-03-27T23:53:21.887Z,100239.75
2023-03-27T23:58:25.236Z,100240.72
